Time;durP1;ratioP1;P1;durP2;ratioP2;P2;SDS_P1;SDS_P2;PMS_P1;PMS_P2;Temp;Humidity;BMP_temperature;BMP_pressure;BME280_temperature;BME280_humidity;BME280_pressure;Samples;Min_cycle;Max_cycle;Signal;HPM_P1;HPM_P2
2021/06/18 00:01:54;;;;;;;8.40;7.73;;;;;;;;;;5131153;28;20431;-93
2021/06/18 00:04:19;;;;;;;8.13;7.70;;;25.40;57.60;;;;;;5121650;28;20449;-92
2021/06/18 00:06:45;;;;;;;7.63;7.13;;;27.90;64.20;;;;;;5118283;28;20407;-91
2021/06/18 00:09:33;;;;;;;9.00;8.20;;;27.70;59.80;;;;;;5120430;28;20176;-90
2021/06/18 00:12:03;;;;;;;8.97;8.17;;;26.20;58.70;;;;;;5117708;28;20600;-91
2021/06/18 00:14:29;;;;;;;11.30;8.20;;;25.30;58.70;;;;;;5119963;28;20404;-93
2021/06/18 00:16:55;;;;;;;8.93;8.20;;;25.60;63.90;;;;;;5120868;28;20799;-92
2021/06/18 00:19:21;;;;;;;8.50;7.90;;;27.20;65.30;;;;;;5118305;28;20254;-92
2021/06/18 00:21:47;;;;;;;8.90;8.23;;;;;;;;;;5121027;28;20174;-92
2021/06/18 00:24:39;;;;;;;9.63;8.77;;;25.10;58.30;;;;;;5120573;28;20165;-92
2021/06/18 00:27:05;;;;;;;7.80;7.43;;;24.30;58.00;;;;;;5108644;28;20427;-92
2021/06/18 00:29:30;;;;;;;9.37;8.90;;;25.20;59.90;;;;;;5119659;28;20408;-93
2021/06/18 00:31:56;;;;;;;8.07;7.73;;;25.90;59.70;;;;;;5120042;28;20272;-91
2021/06/18 00:34:21;;;;;;;8.23;7.53;;;27.60;64.10;;;;;;5127158;28;20169;-91
2021/06/18 00:36:47;;;;;;;8.40;7.83;;;27.20;63.50;;;;;;5120241;28;20200;-91
2021/06/18 00:39:12;;;;;;;8.93;8.33;;;27.30;62.20;;;;;;5118471;28;20176;-92
2021/06/18 00:41:38;;;;;;;9.50;8.23;;;27.00;61.70;;;;;;5118311;28;20177;-92
2021/06/18 00:44:04;;;;;;;8.37;7.40;;;26.40;61.70;;;;;;5116527;28;20176;-92
2021/06/18 00:46:29;;;;;;;8.30;7.70;;;25.90;64.50;;;;;;5117419;28;20173;-90
2021/06/18 00:48:55;;;;;;;8.13;7.63;;;27.10;60.70;;;;;;5116487;28;20256;-92
2021/06/18 00:51:21;;;;;;;8.93;8.23;;;25.90;59.70;;;;;;5116219;28;20615;-93
2021/06/18 00:53:47;;;;;;;8.00;7.60;;;27.10;61.00;;;;;;5116450;28;20407;-93
2021/06/18 00:56:13;;;;;;;9.90;8.97;;;26.00;60.40;;;;;;5117247;28;20287;-93
2021/06/18 00:58:39;;;;;;;9.17;8.27;;;25.50;61.40;;;;;;5116022;28;20423;-92
2021/06/18 01:01:04;;;;;;;9.60;8.17;;;23.40;59.30;;;;;;5118527;28;20224;-92
2021/06/18 01:03:30;;;;;;;10.00;8.87;;;24.80;61.90;;;;;;5117141;28;20411;-91
2021/06/18 01:05:56;;;;;;;9.33;8.50;;;25.40;60.30;;;;;;5118610;28;20173;-91
2021/06/18 01:08:39;;;;;;;9.70;8.80;;;26.90;64.10;;;;;;5118293;28;20191;-92
2021/06/18 01:11:11;;;;;;;9.97;9.27;;;24.80;59.70;;;;;;5119525;28;20418;-91
2021/06/18 01:14:05;;;;;;;9.43;8.83;;;22.00;58.10;;;;;;5118272;28;20415;-91
2021/06/18 01:16:36;;;;;;;8.70;8.40;;;24.50;60.00;;;;;;5118205;28;20470;-93
2021/06/18 01:19:24;;;;;;;9.30;8.80;;;25.10;62.00;;;;;;5119648;28;20395;-92
2021/06/18 01:21:54;;;;;;;8.87;8.17;;;25.60;60.70;;;;;;5120610;28;20505;-91
2021/06/18 01:24:58;;;;;;;9.87;8.97;;;24.80;60.10;;;;;;5119671;28;20407;-91
2021/06/18 01:27:35;;;;;;;9.50;8.90;;;24.60;60.20;;;;;;5122056;28;20396;-91
2021/06/18 01:30:06;;;;;;;9.87;9.23;;;24.30;60.80;;;;;;5119726;28;20419;-91
2021/06/18 01:32:37;;;;;;;9.83;9.10;;;24.50;60.90;;;;;;5121650;28;20515;-91
2021/06/18 01:35:07;;;;;;;9.93;9.13;;;25.10;64.20;;;;;;5119746;28;20407;-90
2021/06/18 01:37:35;;;;;;;10.27;9.37;;;24.40;61.20;;;;;;5117017;28;20449;-91
2021/06/18 01:40:09;;;;;;;9.83;9.13;;;25.10;62.00;;;;;;5117664;28;20411;-91
2021/06/18 01:42:42;;;;;;;10.03;9.20;;;24.30;61.10;;;;;;5116232;28;20419;-91
2021/06/18 01:45:10;;;;;;;10.00;9.20;;;26.00;63.50;;;;;;5116928;28;20419;-92
2021/06/18 01:47:39;;;;;;;10.37;9.53;;;24.30;61.20;;;;;;5118349;28;20454;-92
2021/06/18 01:50:11;;;;;;;9.53;8.93;;;24.20;62.50;;;;;;5119309;28;20419;-92
2021/06/18 01:52:39;;;;;;;10.13;9.63;;;24.30;62.80;;;;;;5118373;28;20430;-91
2021/06/18 01:55:07;;;;;;;9.20;8.50;;;22.80;59.90;;;;;;5120587;28;20430;-90
2021/06/18 01:57:36;;;;;;;11.03;9.90;;;24.20;62.70;;;;;;5117444;28;20854;-92
2021/06/18 02:00:05;;;;;;;9.97;9.27;;;26.40;66.00;;;;;;5120490;28;20484;-91
2021/06/18 02:02:32;;;;;;;10.20;9.50;;;24.20;63.70;;;;;;5120161;28;20415;-92
2021/06/18 02:04:59;;;;;;;9.93;9.30;;;24.30;62.80;;;;;;5124445;28;20421;-92
2021/06/18 02:07:26;;;;;;;10.40;9.63;;;26.40;64.60;;;;;;5121661;28;20404;-92
2021/06/18 02:09:54;;;;;;;10.07;9.33;;;24.30;62.80;;;;;;5121375;28;20407;-92
2021/06/18 02:12:21;;;;;;;9.53;8.93;;;26.80;65.30;;;;;;5124188;28;20475;-92
2021/06/18 02:14:48;;;;;;;10.70;9.90;;;24.50;65.50;;;;;;5123286;28;20422;-91
2021/06/18 02:17:15;;;;;;;12.10;11.07;;;25.90;64.20;;;;;;5122545;28;20470;-93
2021/06/18 02:19:43;;;;;;;11.97;10.97;;;27.70;69.90;;;;;;5122123;28;20413;-92
2021/06/18 02:22:12;;;;;;;12.10;11.30;;;24.50;64.50;;;;;;5124658;28;20426;-92
2021/06/18 02:24:42;;;;;;;11.43;10.53;;;24.40;62.80;;;;;;5121882;28;20419;-92
2021/06/18 02:27:11;;;;;;;11.57;10.77;;;24.40;65.20;;;;;;5124859;28;20415;-90
2021/06/18 02:29:39;;;;;;;10.90;10.00;;;24.70;64.30;;;;;;5119815;28;20913;-90
2021/06/18 02:32:07;;;;;;;11.17;10.37;;;23.90;69.90;;;;;;5122151;28;20415;-91
2021/06/18 02:34:34;;;;;;;11.33;10.53;;;24.10;64.20;;;;;;5119907;28;20495;-91
2021/06/18 02:37:03;;;;;;;11.63;10.73;;;26.20;66.70;;;;;;5119690;28;20880;-90
2021/06/18 02:39:29;;;;;;;12.80;10.13;;;24.60;66.00;;;;;;5122818;28;20492;-91
2021/06/18 02:41:54;;;;;;;12.40;11.20;;;26.00;70.60;;;;;;5122397;28;20445;-91
2021/06/18 02:44:20;;;;;;;13.00;10.37;;;25.30;71.20;;;;;;5128025;27;20984;-91
2021/06/18 02:47:01;;;;;;;13.37;12.10;;;25.10;66.20;;;;;;5136827;27;20205;-92
2021/06/18 02:49:42;;;;;;;12.70;11.87;;;26.60;66.90;;;;;;5136548;27;20169;-92
2021/06/18 02:52:17;;;;;;;11.53;10.80;;;24.20;63.40;;;;;;5119537;28;20423;-91
2021/06/18 02:54:48;;;;;;;11.50;10.70;;;26.30;67.10;;;;;;5122522;28;20422;-92
2021/06/18 02:57:20;;;;;;;12.80;11.90;;;26.30;68.30;;;;;;5118218;28;20470;-93
2021/06/18 03:00:07;;;;;;;11.90;11.00;;;24.50;65.20;;;;;;5119988;28;20399;-91
2021/06/18 03:02:40;;;;;;;12.37;11.13;;;24.20;64.10;;;;;;5120816;28;20468;-92
2021/06/18 03:05:08;;;;;;;12.47;11.70;;;24.10;64.90;;;;;;5122738;28;20422;-92
2021/06/18 03:07:36;;;;;;;12.23;11.33;;;24.40;66.80;;;;;;5125498;28;20443;-90
2021/06/18 03:10:07;;;;;;;13.00;12.10;;;24.40;66.20;;;;;;5123373;28;20407;-91
2021/06/18 03:12:38;;;;;;;14.57;11.83;;;24.70;69.60;;;;;;5120784;28;20419;-90
2021/06/18 03:15:06;;;;;;;14.37;13.27;;;25.00;66.70;;;;;;5117646;28;20406;-91
2021/06/18 03:17:35;;;;;;;12.20;11.30;;;23.90;65.60;;;;;;5118664;28;20419;-91
2021/06/18 03:20:06;;;;;;;14.17;12.97;;;25.60;68.00;;;;;;5123030;28;20404;-91
2021/06/18 03:22:34;;;;;;;14.30;13.10;;;24.00;66.20;;;;;;5124963;28;20422;-91
2021/06/18 03:25:02;;;;;;;13.73;12.50;;;26.60;69.50;;;;;;5132919;28;20760;-92
2021/06/18 03:27:31;;;;;;;14.30;12.90;;;24.60;66.40;;;;;;5124921;28;20430;-91
2021/06/18 03:29:57;;;;;;;14.40;12.80;;;24.70;67.10;;;;;;5123753;28;20480;-88
2021/06/18 03:32:24;;;;;;;15.03;13.83;;;22.40;64.30;;;;;;5124483;28;20913;-90
2021/06/18 03:34:51;;;;;;;15.00;13.90;;;26.10;70.90;;;;;;5120640;28;20415;-90
2021/06/18 03:37:18;;;;;;;13.43;12.30;;;25.50;68.00;;;;;;5121366;28;20474;-94
2021/06/18 03:39:44;;;;;;;14.13;13.03;;;25.40;68.30;;;;;;5121550;28;20419;-92
2021/06/18 03:42:10;;;;;;;14.23;13.30;;;26.00;69.40;;;;;;5123774;28;20426;-91
2021/06/18 03:44:36;;;;;;;13.97;13.07;;;24.20;72.70;;;;;;5123664;28;20411;-91
2021/06/18 03:47:04;;;;;;;13.57;12.40;;;24.00;69.30;;;;;;5126624;28;20497;-90
2021/06/18 03:49:30;;;;;;;15.13;14.00;;;24.10;66.50;;;;;;5120085;28;20173;-91
2021/06/18 03:51:56;;;;;;;13.50;12.40;;;26.00;68.60;;;;;;5116151;28;20422;-90
2021/06/18 03:54:22;;;;;;;14.50;13.30;;;22.70;64.20;;;;;;5115910;28;20415;-91
2021/06/18 03:56:49;;;;;;;15.70;14.50;;;24.50;66.70;;;;;;5117500;28;20462;-90
2021/06/18 03:59:16;;;;;;;13.47;12.20;;;26.10;68.80;;;;;;5116752;28;20403;-90
2021/06/18 04:01:45;;;;;;;13.67;12.33;;;23.20;64.50;;;;;;5116503;28;20886;-90
2021/06/18 04:04:11;;;;;;;15.00;13.80;;;24.90;67.00;;;;;;5116330;28;20918;-90
2021/06/18 04:06:38;;;;;;;15.53;14.30;;;26.30;68.80;;;;;;5116386;28;20415;-90
2021/06/18 04:09:04;;;;;;;14.20;13.03;;;26.10;68.60;;;;;;5115870;28;20494;-90
2021/06/18 04:11:30;;;;;;;14.30;13.40;;;24.30;67.10;;;;;;5117363;28;20965;-90
2021/06/18 04:13:56;;;;;;;15.53;14.30;;;24.90;67.30;;;;;;5114648;28;20468;-90
2021/06/18 04:16:22;;;;;;;14.13;13.03;;;24.60;67.90;;;;;;5117006;28;20478;-91
2021/06/18 04:18:49;;;;;;;15.20;13.73;;;26.50;68.30;;;;;;5116915;28;20407;-89
2021/06/18 04:21:20;;;;;;;15.77;13.80;;;27.10;68.50;;;;;;5117594;28;20527;-91
2021/06/18 04:23:46;;;;;;;14.87;13.63;;;26.20;67.40;;;;;;5117493;28;20413;-91
2021/06/18 04:26:11;;;;;;;15.10;13.73;;;26.40;67.20;;;;;;5116693;28;20422;-89
2021/06/18 04:28:38;;;;;;;17.47;13.17;;;;;;;;;;5117015;28;20431;-89
2021/06/18 04:31:05;;;;;;;15.03;13.67;;;24.60;64.40;;;;;;5120465;28;20189;-90
2021/06/18 04:33:31;;;;;;;16.93;15.47;;;23.20;64.20;;;;;;5121169;28;20407;-89
2021/06/18 04:35:56;;;;;;;14.97;13.80;;;25.80;67.80;;;;;;5123464;28;20450;-89
2021/06/18 04:38:22;;;;;;;15.00;13.97;;;25.20;68.60;;;;;;5127867;28;20419;-88
2021/06/18 04:40:50;;;;;;;15.67;13.63;;;24.90;67.50;;;;;;5125926;28;20176;-89
2021/06/18 04:43:15;;;;;;;16.53;15.13;;;25.80;67.40;;;;;;5118209;28;20242;-90
2021/06/18 04:45:41;;;;;;;15.43;14.23;;;24.60;66.20;;;;;;5119246;28;20403;-89
2021/06/18 04:48:07;;;;;;;15.60;14.40;;;26.50;68.10;;;;;;5117259;28;20204;-89
2021/06/18 04:50:32;;;;;;;16.60;15.33;;;24.80;65.30;;;;;;5116707;28;20527;-91
2021/06/18 04:53:00;;;;;;;15.60;14.37;;;25.40;64.90;;;;;;5115517;28;20415;-91
2021/06/18 04:55:27;;;;;;;15.73;14.37;;;24.70;63.50;;;;;;5120306;28;20193;-90
2021/06/18 04:57:53;;;;;;;13.47;12.10;;;25.30;64.20;;;;;;5122154;28;20415;-90
2021/06/18 05:00:23;;;;;;;15.33;14.13;;;28.20;68.40;;;;;;5122696;28;20404;-91
2021/06/18 05:02:49;;;;;;;30.50;17.90;;;26.20;69.90;;;;;;5124715;28;20423;-92
2021/06/18 05:05:17;;;;;;;17.60;15.13;;;25.70;60.60;;;;;;5123720;28;20494;-90
2021/06/18 05:07:43;;;;;;;16.13;15.14;;;25.80;74.20;;;;;;4768806;28;10000844;-93
2021/06/18 05:10:09;;;;;;;17.10;15.77;;;26.60;63.90;;;;;;5122202;28;20415;-93
2021/06/18 05:12:36;;;;;;;16.23;14.57;;;26.00;61.40;;;;;;5115457;27;20547;-90
2021/06/18 05:15:03;;;;;;;15.83;14.53;;;28.30;64.10;;;;;;5115827;28;20411;-93
2021/06/18 05:17:32;;;;;;;16.90;15.60;;;26.60;59.70;;;;;;5116643;28;20419;-92
2021/06/18 05:19:57;;;;;;;16.23;14.83;;;29.00;65.30;;;;;;5116154;28;20403;-91
2021/06/18 05:22:23;;;;;;;17.70;16.40;;;;;;;;;;5099681;28;20428;-93
2021/06/18 05:24:49;;;;;;;14.60;13.60;;;26.70;58.50;;;;;;5114082;28;20181;-92
2021/06/18 05:27:16;;;;;;;16.53;15.03;;;28.00;61.20;;;;;;5126607;28;20411;-94
2021/06/18 05:29:41;;;;;;;16.30;15.10;;;27.60;58.90;;;;;;5117565;28;20200;-93
2021/06/18 05:32:10;;;;;;;15.70;14.40;;;29.50;59.80;;;;;;5116760;28;20435;-91
2021/06/18 05:34:36;;;;;;;16.00;14.60;;;27.60;58.00;;;;;;5117720;28;20177;-93
2021/06/18 05:37:05;;;;;;;16.50;15.30;;;27.60;59.00;;;;;;5116968;28;20526;-90
2021/06/18 05:39:30;;;;;;;14.93;13.80;;;30.60;60.00;;;;;;5098563;28;20185;-92
2021/06/18 05:41:56;;;;;;;15.57;14.57;;;;;;;;;;5122142;28;20479;-93
2021/06/18 05:44:22;;;;;;;17.00;15.70;;;27.80;55.90;;;;;;5120763;28;20165;-90
2021/06/18 05:50:31;;;;;;;17.27;15.77;;;28.50;56.20;;;;;;5113062;28;20232;-91
2021/06/18 05:52:56;;;;;;;15.13;14.13;;;28.70;56.20;;;;;;5119687;27;20427;-90
2021/06/18 05:55:22;;;;;;;15.33;14.23;;;31.20;56.00;;;;;;5118151;28;20455;-90
2021/06/18 05:57:52;;;;;;;14.83;13.23;;;31.90;54.90;;;;;;5124495;28;20235;-90
2021/06/18 06:00:19;;;;;;;15.40;14.30;;;32.00;54.30;;;;;;5118953;28;20165;-90
2021/06/18 06:02:45;;;;;;;15.10;14.10;;;30.00;52.30;;;;;;5114064;28;20450;-93
2021/06/18 06:05:11;;;;;;;15.97;14.40;;;30.40;52.40;;;;;;5096817;28;20435;-90
2021/06/18 06:07:43;;;;;;;15.10;14.00;;;30.60;52.90;;;;;;5118943;28;20471;-92
2021/06/18 06:10:14;;;;;;;22.00;18.07;;;31.10;52.40;;;;;;5102306;28;20416;-93
2021/06/18 06:12:42;;;;;;;14.33;13.17;;;31.90;53.30;;;;;;5107255;28;20428;-90
2021/06/18 06:15:11;;;;;;;14.37;13.33;;;32.20;52.70;;;;;;5104102;28;20429;-93
2021/06/18 06:17:40;;;;;;;14.77;13.57;;;32.10;52.90;;;;;;5104646;28;20516;-91
2021/06/18 06:20:07;;;;;;;14.83;13.60;;;30.80;52.20;;;;;;5106254;28;20431;-92
2021/06/18 06:22:37;;;;;;;15.40;14.03;;;31.40;51.70;;;;;;5104143;28;20479;-92
2021/06/18 06:25:04;;;;;;;15.07;13.60;;;32.70;50.00;;;;;;5107610;28;20458;-91
2021/06/18 06:27:30;;;;;;;15.30;14.17;;;32.30;50.00;;;;;;5104217;28;20799;-93
2021/06/18 06:29:56;;;;;;;14.10;13.20;;;34.80;51.60;;;;;;5103460;28;20440;-93
2021/06/18 06:32:23;;;;;;;14.20;13.30;;;33.90;52.30;;;;;;5110404;28;20418;-90
2021/06/18 06:34:49;;;;;;;15.10;13.87;;;32.70;49.10;;;;;;5111928;28;20431;-91
2021/06/18 06:37:15;;;;;;;13.90;12.87;;;32.90;50.00;;;;;;5107951;28;20494;-88
2021/06/18 06:39:40;;;;;;;18.00;13.40;;;35.00;49.30;;;;;;5116808;28;20170;-90
2021/06/18 06:42:14;;;;;;;14.80;13.60;;;33.60;47.50;;;;;;5116723;28;20178;-93
2021/06/18 06:44:43;;;;;;;16.23;14.80;;;33.80;46.50;;;;;;5115696;28;20170;-91
2021/06/18 06:47:14;;;;;;;15.00;14.00;;;35.30;47.60;;;;;;5118800;28;20455;-92
2021/06/18 06:49:44;;;;;;;16.90;15.73;;;33.50;46.80;;;;;;5117588;28;20388;-92
2021/06/18 06:52:12;;;;;;;15.37;14.40;;;33.50;47.60;;;;;;5112598;28;20420;-92
2021/06/18 06:54:37;;;;;;;15.80;14.10;;;35.10;47.60;;;;;;5112163;28;20414;-91
2021/06/18 06:57:06;;;;;;;16.13;14.63;;;35.60;49.00;;;;;;5108968;28;20491;-92
2021/06/18 06:59:32;;;;;;;14.37;13.47;;;33.80;46.70;;;;;;5126553;28;20174;-91
2021/06/18 07:02:03;;;;;;;14.77;13.80;;;32.70;46.20;;;;;;5132242;28;20431;-93
2021/06/18 07:04:35;;;;;;;15.20;13.97;;;34.80;46.20;;;;;;5128307;28;20539;-92
2021/06/18 07:07:16;;;;;;;15.47;14.37;;;36.20;44.80;;;;;;5114351;28;20411;-93
2021/06/18 07:09:43;;;;;;;16.17;14.87;;;34.10;45.00;;;;;;5133095;28;20414;-95
2021/06/18 07:12:09;;;;;;;15.23;14.13;;;35.40;46.50;;;;;;5131101;28;20415;-92
2021/06/18 07:14:45;;;;;;;14.60;13.32;;;35.10;45.90;;;;;;5114373;27;10000947;-91
2021/06/18 07:17:15;;;;;;;14.83;13.80;;;35.50;45.00;;;;;;5132671;28;20447;-93
2021/06/18 07:19:43;;;;;;;16.47;15.17;;;35.80;44.90;;;;;;5130957;27;20181;-92
2021/06/18 07:22:20;;;;;;;15.87;14.67;;;35.30;45.40;;;;;;5130140;28;20419;-92
2021/06/18 07:24:46;;;;;;;14.67;13.67;;;35.40;42.50;;;;;;5127171;28;20502;-93
2021/06/18 07:27:13;;;;;;;15.13;14.13;;;35.80;46.50;;;;;;5108855;28;20418;-93
2021/06/18 07:29:47;;;;;;;15.03;13.70;;;35.00;43.50;;;;;;5124536;28;20988;-92
2021/06/18 07:32:12;;;;;;;14.70;13.70;;;35.60;44.10;;;;;;5125922;28;20760;-90
2021/06/18 07:34:38;;;;;;;15.90;14.57;;;35.70;44.70;;;;;;5125481;28;20421;-92
2021/06/18 07:37:05;;;;;;;15.87;14.60;;;37.30;44.50;;;;;;5123945;28;20462;-91
2021/06/18 07:39:37;;;;;;;14.33;13.33;;;36.60;42.20;;;;;;5126721;28;20404;-93
2021/06/18 07:42:07;;;;;;;14.87;13.87;;;37.20;40.70;;;;;;5133597;27;20460;-93
2021/06/18 07:44:44;;;;;;;15.00;14.00;;;37.50;40.50;;;;;;5114389;27;20442;-94
2021/06/18 07:47:13;;;;;;;15.17;14.27;;;37.70;39.70;;;;;;5115150;28;20404;-92
2021/06/18 07:49:38;;;;;;;14.60;13.60;;;37.50;39.50;;;;;;5114884;28;20497;-90
2021/06/18 07:52:06;;;;;;;15.50;14.60;;;35.80;40.10;;;;;;5114841;28;20435;-90
2021/06/18 07:54:32;;;;;;;17.00;15.53;;;38.30;40.20;;;;;;5113162;28;20231;-92
2021/06/18 07:57:04;;;;;;;16.47;15.30;;;37.20;42.90;;;;;;5112008;28;20958;-94
2021/06/18 07:59:58;;;;;;;15.13;14.13;;;38.30;41.80;;;;;;5110285;28;20872;-95
2021/06/18 08:03:10;;;;;;;15.50;14.50;;;37.60;38.70;;;;;;5102091;27;94997;-93
2021/06/18 08:05:38;;;;;;;16.97;15.67;;;35.50;39.60;;;;;;5086895;28;20448;-95
2021/06/18 08:08:12;;;;;;;16.83;15.67;;;37.90;41.30;;;;;;5087419;28;20409;-90
2021/06/18 08:10:40;;;;;;;17.70;16.33;;;38.40;39.70;;;;;;5085505;28;20512;-94
2021/06/18 08:13:07;;;;;;;16.00;14.90;;;37.60;40.60;;;;;;5087984;28;20499;-93
2021/06/18 08:15:33;;;;;;;15.47;14.40;;;39.20;41.90;;;;;;5085574;28;20439;-92
2021/06/18 08:29:59;;;;;;;15.77;14.40;;;38.80;37.00;;;;;;5094443;27;20547;-94
2021/06/18 08:32:25;;;;;;;14.03;13.23;;;41.50;37.10;;;;;;5058641;28;20430;-95
2021/06/18 08:34:50;;;;;;;14.10;13.27;;;39.40;36.50;;;;;;5059308;28;20426;-93
2021/06/18 08:37:16;;;;;;;14.40;13.60;;;38.80;37.40;;;;;;5062309;28;20159;-90
2021/06/18 08:39:42;;;;;;;17.13;14.90;;;38.20;38.10;;;;;;5062387;28;20178;-91
2021/06/18 08:42:10;;;;;;;15.90;14.50;;;36.30;38.40;;;;;;5063775;28;20406;-91
2021/06/18 08:44:36;;;;;;;15.63;14.63;;;36.90;39.20;;;;;;5062615;28;20555;-91
2021/06/18 08:47:17;;;;;;;14.73;13.73;;;36.50;40.00;;;;;;5063418;28;20512;-93
2021/06/18 08:50:07;;;;;;;16.17;14.77;;;36.20;40.60;;;;;;5049151;28;20437;-95
2021/06/18 08:52:43;;;;;;;14.83;13.93;;;36.50;40.50;;;;;;5064942;28;20410;-94
2021/06/18 08:55:10;;;;;;;14.13;13.03;;;37.00;42.30;;;;;;5062694;28;20773;-92
2021/06/18 08:57:40;;;;;;;13.83;12.93;;;34.70;41.80;;;;;;5059224;28;20518;-95
2021/06/18 09:00:07;;;;;;;14.67;13.37;;;34.70;42.70;;;;;;5044176;28;20475;-92
2021/06/18 09:02:35;;;;;;;14.23;13.20;;;36.00;43.70;;;;;;5045480;28;20437;-94
2021/06/18 09:05:13;;;;;;;14.80;13.70;;;33.40;45.20;;;;;;5045699;28;20418;-94
2021/06/18 09:08:00;;;;;;;12.80;12.10;;;33.00;44.90;;;;;;5046696;28;20462;-92
2021/06/18 09:10:40;;;;;;;14.03;12.70;;;33.00;44.00;;;;;;5078107;28;20426;-89
2021/06/18 09:13:34;;;;;;;12.53;11.73;;;33.20;43.90;;;;;;5046210;28;20411;-92
2021/06/18 09:16:04;;;;;;;13.20;12.30;;;34.00;43.60;;;;;;5047309;28;20433;-93
2021/06/18 09:18:45;;;;;;;13.03;12.23;;;34.60;41.80;;;;;;5044651;28;20427;-93
2021/06/18 09:21:22;;;;;;;12.60;11.40;;;34.20;40.50;;;;;;5041871;28;20513;-92
2021/06/18 09:23:50;;;;;;;12.83;11.60;;;35.80;39.90;;;;;;5039662;28;20926;-96
2021/06/18 09:26:31;;;;;;;11.97;10.87;;;37.70;39.60;;;;;;5041248;28;20435;-95
2021/06/18 09:29:09;;;;;;;10.17;9.50;;;37.30;36.90;;;;;;5037907;28;20486;-93
2021/06/18 09:31:59;;;;;;;10.80;9.50;;;37.30;37.00;;;;;;5060351;28;20415;-96
2021/06/18 09:34:42;;;;;;;;;;;;;;;;;;;;;
2021/06/18 09:37:20;;;;;;;9.40;8.70;;;38.00;35.10;;;;;;5030447;28;20447;-93
2021/06/18 09:40:06;;;;;;;8.50;8.00;;;38.20;34.30;;;;;;5029482;28;20423;-92
2021/06/18 09:42:34;;;;;;;8.93;8.07;;;38.60;34.60;;;;;;5061073;28;20422;-95
2021/06/18 09:45:02;;;;;;;8.83;7.40;;;38.90;34.10;;;;;;5027471;28;20939;-93
2021/06/18 09:47:29;;;;;;;8.00;7.30;;;38.10;32.90;;;;;;5027164;28;20438;-91
2021/06/18 09:50:00;;;;;;;7.80;7.00;;;39.30;33.70;;;;;;4694395;28;9999972;-92
2021/06/18 09:52:27;;;;;;;6.53;6.10;;;38.20;33.10;;;;;;5050799;28;20201;-92
2021/06/18 09:54:53;;;;;;;7.90;7.20;;;37.70;35.70;;;;;;5043641;28;20427;-94
2021/06/18 09:57:42;;;;;;;10.33;7.30;;;37.50;35.10;;;;;;5043638;28;20411;-93
2021/06/18 10:00:12;;;;;;;7.70;7.10;;;37.10;33.90;;;;;;5045499;28;20434;-91
2021/06/18 10:02:44;;;;;;;11.43;10.63;;;36.60;35.60;;;;;;5048102;28;20507;-90
2021/06/18 10:05:11;;;;;;;7.80;7.03;;;37.50;36.60;;;;;;5049786;28;20438;-92
2021/06/18 10:07:38;;;;;;;8.30;7.70;;;36.80;36.30;;;;;;5045417;28;20451;-94
2021/06/18 10:10:11;;;;;;;8.37;7.53;;;37.40;34.50;;;;;;5041434;28;20423;-93
2021/06/18 10:12:40;;;;;;;9.90;8.60;;;38.50;34.30;;;;;;5026897;28;20411;-94
2021/06/18 10:15:09;;;;;;;9.47;8.53;;;39.50;34.40;;;;;;5044628;28;20507;-93
2021/06/18 10:17:45;;;;;;;9.50;8.67;;;40.20;33.60;;;;;;5045443;28;20406;-92
2021/06/18 10:20:16;;;;;;;8.67;7.93;;;40.30;32.70;;;;;;5045343;28;20457;-91
2021/06/18 10:22:54;;;;;;;9.53;8.83;;;40.40;33.20;;;;;;5044651;28;20418;-94
2021/06/18 10:25:35;;;;;;;8.90;8.40;;;39.20;32.90;;;;;;5041507;28;20450;-94
2021/06/18 10:28:17;;;;;;;9.73;8.87;;;39.50;33.90;;;;;;5032066;28;20483;-95
2021/06/18 10:30:52;;;;;;;10.33;9.37;;;39.50;35.10;;;;;;5041066;28;20993;-92
2021/06/18 10:33:40;;;;;;;9.13;8.30;;;39.30;33.50;;;;;;5029083;28;20423;-94
2021/06/18 10:36:33;;;;;;;9.30;8.63;;;39.40;34.50;;;;;;5043812;28;20491;-94
2021/06/18 10:39:08;;;;;;;9.10;8.60;;;38.70;34.40;;;;;;5040387;28;20539;-92
2021/06/18 10:41:44;;;;;;;10.63;9.90;;;38.10;35.20;;;;;;5035055;28;20471;-92
2021/06/18 10:44:47;;;;;;;11.43;10.30;;;38.40;35.10;;;;;;5052270;28;20435;-94
2021/06/18 10:47:27;;;;;;;10.67;9.90;;;38.40;35.20;;;;;;5041115;28;20475;-90
2021/06/18 10:49:56;;;;;;;10.10;9.50;;;37.70;35.50;;;;;;5022348;28;20415;-88
2021/06/18 10:52:26;;;;;;;10.03;9.17;;;38.00;36.00;;;;;;5039038;28;20443;-90
2021/06/18 10:54:59;;;;;;;10.90;10.10;;;38.80;35.70;;;;;;5037476;28;20450;-91
2021/06/18 10:57:27;;;;;;;9.73;8.93;;;38.20;35.20;;;;;;5038969;28;20430;-88
2021/06/18 10:59:56;;;;;;;11.67;10.40;;;38.80;34.80;;;;;;5041086;28;20423;-91
2021/06/18 11:02:25;;;;;;;8.77;7.97;;;39.80;34.30;;;;;;5024078;28;20407;-90
2021/06/18 11:05:06;;;;;;;8.00;7.40;;;40.10;32.70;;;;;;5059917;28;20446;-92
2021/06/18 11:07:51;;;;;;;6.93;6.50;;;41.90;31.40;;;;;;5046048;28;20523;-93
2021/06/18 11:10:31;;;;;;;7.60;6.90;;;42.00;31.10;;;;;;5043394;28;20431;-90
2021/06/18 11:13:07;;;;;;;7.23;6.60;;;42.20;30.00;;;;;;5044518;28;20427;-91
2021/06/18 11:15:35;;;;;;;7.80;5.73;;;42.40;29.70;;;;;;5041743;28;20411;-94
2021/06/18 11:18:36;;;;;;;4.63;4.27;;;43.00;29.60;;;;;;5061221;28;20422;-94
2021/06/18 11:21:06;;;;;;;4.40;4.20;;;43.40;27.20;;;;;;5050908;28;20426;-92
2021/06/18 11:23:36;;;;;;;3.83;3.53;;;43.00;27.20;;;;;;5043717;28;20805;-91
2021/06/18 11:26:39;;;;;;;3.90;3.60;;;43.10;26.70;;;;;;5062560;28;20467;-92
2021/06/18 11:29:26;;;;;;;4.10;3.80;;;42.60;26.90;;;;;;5043312;28;20503;-94
2021/06/18 11:31:52;;;;;;;4.23;4.03;;;41.90;27.00;;;;;;5044535;28;20455;-91
2021/06/18 11:34:50;;;;;;;5.50;4.03;;;41.20;28.10;;;;;;5030136;28;20584;-92
2021/06/18 11:37:32;;;;;;;6.97;4.87;;;41.30;27.70;;;;;;5041932;28;20426;-91
2021/06/18 11:40:10;;;;;;;4.70;4.40;;;40.90;28.00;;;;;;5041734;28;20790;-92
2021/06/18 11:42:39;;;;;;;12.37;7.67;;;41.20;28.80;;;;;;5039379;28;20416;-94
2021/06/18 11:45:21;;;;;;;5.60;4.77;;;41.50;28.70;;;;;;5042806;28;20428;-92
2021/06/18 11:48:02;;;;;;;5.13;4.73;;;41.90;28.20;;;;;;5026875;28;20462;-90
2021/06/18 11:51:06;;;;;;;5.90;4.03;;;42.10;27.80;;;;;;5043076;28;20428;-93
2021/06/18 11:53:41;;;;;;;5.60;4.63;;;42.30;27.30;;;;;;5030328;28;20411;-91
2021/06/18 11:56:20;;;;;;;14.17;12.93;;;42.30;27.30;;;;;;5045051;28;20466;-93
2021/06/18 11:59:14;;;;;;;4.83;4.50;;;42.50;27.00;;;;;;5045008;28;20423;-92
2021/06/18 12:01:42;;;;;;;7.83;4.10;;;43.10;27.30;;;;;;5043052;28;20450;-92
2021/06/18 12:04:17;;;;;;;4.53;4.13;;;43.30;27.80;;;;;;5024334;28;20419;-89
2021/06/18 12:06:55;;;;;;;7.07;5.03;;;43.50;26.70;;;;;;5039010;28;20433;-91
2021/06/18 12:09:29;;;;;;;4.83;4.43;;;44.10;26.50;;;;;;5043026;28;20503;-94
2021/06/18 12:12:12;;;;;;;5.00;4.60;;;44.30;26.70;;;;;;5024255;28;20419;-92
2021/06/18 12:14:58;;;;;;;4.50;4.13;;;44.60;27.00;;;;;;5038095;28;20438;-92
2021/06/18 12:17:34;;;;;;;5.37;4.70;;;44.60;26.40;;;;;;5041779;28;20922;-94
2021/06/18 12:20:38;;;;;;;4.87;4.47;;;43.90;26.50;;;;;;5059005;28;20799;-91
2021/06/18 12:24:18;;;;;;;;;;;;;;;;;;;;;
2021/06/18 12:27:39;;;;;;;;;;;;;;;;;;;;;
2021/06/18 12:30:43;;;;;;;3.97;3.77;;;47.90;26.80;;;;;;4990890;28;20490;-96
2021/06/18 12:33:48;;;;;;;3.60;3.43;;;44.60;25.50;;;;;;5041271;28;20420;-94
2021/06/18 12:36:57;;;;;;;3.93;3.63;;;44.70;25.70;;;;;;5058862;28;20428;-96
2021/06/18 12:43:41;;;;;;;3.77;3.50;;;44.20;26.00;;;;;;5029172;28;20422;-95
2021/06/18 12:49:48;;;;;;;3.90;3.73;;;44.00;26.30;;;;;;5069821;28;20472;-96
2021/06/18 12:52:46;;;;;;;3.83;3.63;;;44.70;25.10;;;;;;5068167;28;20429;-90
2021/06/18 12:55:12;;;;;;;4.20;3.93;;;44.80;25.80;;;;;;5044741;28;20819;-91
2021/06/18 12:57:42;;;;;;;3.07;3.07;;;44.90;26.20;;;;;;5044267;28;20411;-89
2021/06/18 13:00:13;;;;;;;4.70;3.60;;;45.20;25.20;;;;;;5040023;28;20474;-87
2021/06/18 13:02:40;;;;;;;3.60;3.40;;;44.90;25.60;;;;;;5041659;28;20435;-92
2021/06/18 13:05:20;;;;;;;3.47;3.37;;;45.00;25.70;;;;;;5040736;28;20445;-90
2021/06/18 13:07:47;;;;;;;3.97;3.67;;;44.80;25.80;;;;;;5043054;28;20450;-92
2021/06/18 13:10:14;;;;;;;3.53;3.33;;;44.80;26.00;;;;;;5080874;28;20513;-92
2021/06/18 13:12:57;;;;;;;4.77;4.27;;;43.40;24.90;;;;;;5048597;28;20502;-91
2021/06/18 13:15:30;;;;;;;6.20;4.43;;;43.60;25.00;;;;;;5049203;28;20429;-93
2021/06/18 13:17:57;;;;;;;4.40;4.10;;;43.30;26.10;;;;;;5041732;28;20430;-93
2021/06/18 13:20:37;;;;;;;3.80;3.50;;;43.70;26.00;;;;;;5042694;28;20410;-92
2021/06/18 13:23:23;;;;;;;4.10;3.90;;;44.20;26.20;;;;;;5042454;28;20504;-90
2021/06/18 13:25:49;;;;;;;6.03;3.73;;;44.60;25.70;;;;;;5057537;28;20426;-92
2021/06/18 13:28:37;;;;;;;4.77;4.47;;;44.60;26.20;;;;;;5043287;28;20456;-92
2021/06/18 13:31:06;;;;;;;4.27;3.97;;;44.10;25.40;;;;;;5043215;28;20820;-92